MST,Max TemperatureF,Mean TemperatureF,Min TemperatureF,Max Dew PointF,MeanDew PointF,Min DewpointF,Max Humidity, Mean Humidity, Min Humidity, Max Sea Level PressureIn, Mean Sea Level PressureIn, Min Sea Level PressureIn, Max VisibilityMiles, Mean VisibilityMiles, Min VisibilityMiles, Max Wind SpeedMPH, Mean Wind SpeedMPH, Max Gust SpeedMPH,PrecipitationIn, CloudCover, Events, WindDirDegrees
2013-11-1,71,56,42,19,13,9,34,20,9,30.16,30.09,30.04,10,10,10,9,4,,0.00,0,,212
2013-11-2,75,62,48,32,16,9,54,19,8,30.11,29.99,29.88,10,10,10,20,9,28,0.00,2,,138
2013-11-3,73,62,50,49,42,35,83,53,33,29.90,29.83,29.76,10,10,10,24,10,32,0.01,2,Rain,258
2013-11-4,71,60,48,43,39,36,71,47,27,29.85,29.78,29.71,10,10,10,14,6,24,0.00,3,,185
2013-11-5,66,57,48,39,35,28,66,48,24,30.12,29.96,29.80,10,10,10,15,8,21,0.00,3,,248
2013-11-6,66,54,41,37,24,18,66,35,18,30.26,30.20,30.12,10,10,10,14,5,20,0.00,0,,106
2013-11-7,71,56,42,30,24,18,39,28,17,30.28,30.17,30.09,10,10,10,18,10,,0.00,1,,132
2013-11-8,73,60,46,34,31,27,50,35,23,30.12,30.05,29.97,10,10,10,10,5,,0.00,1,,179
2013-11-9,75,62,48,35,32,29,46,34,22,30.11,30.06,30.02,10,10,10,9,6,,0.00,0,,190
2013-11-10,77,64,50,33,31,29,48,33,19,30.14,30.07,30.01,10,10,10,12,6,,0.00,0,,154
2013-11-11,78,65,52,36,33,31,47,33,18,30.12,30.07,29.99,10,10,10,12,5,,0.00,0,,133
2013-11-12,75,64,53,45,39,34,58,43,32,30.22,30.17,30.10,10,10,10,20,8,23,0.00,3,,116
2013-11-13,68,59,50,41,39,37,66,51,35,30.22,30.13,30.03,10,10,10,15,9,,0.00,4,,104
2013-11-14,75,60,46,39,33,19,71,41,12,30.05,29.97,29.86,10,10,10,17,5,20,0.00,2,,220
2013-11-15,69,62,55,46,43,36,63,51,38,29.85,29.74,29.63,10,10,10,36,13,47,0.00,5,,212
2013-11-16,68,61,54,43,38,30,58,46,24,29.86,29.77,29.67,10,10,10,26,14,33,0.00,0,,211
2013-11-17,69,58,46,41,39,35,76,51,29,30.05,29.99,29.88,10,10,10,12,6,22,0.00,1,,196
2013-11-18,71,60,48,46,37,27,76,47,21,30.18,30.03,29.96,10,10,10,14,6,18,0.00,2,,237
2013-11-19,75,60,46,37,29,12,62,36,9,30.07,29.93,29.83,10,10,10,15,6,21,0.00,4,,241
2013-11-20,71,60,48,34,26,12,46,31,11,29.99,29.85,29.78,10,10,10,21,7,30,0.00,6,,237
2013-11-21,68,58,48,45,38,30,62,46,34,29.94,29.89,29.85,10,10,10,18,7,25,0.00,6,,177
2013-11-22,62,56,48,52,45,37,100,65,42,29.97,29.88,29.81,10,9,4,30,14,40,0.00,7,Rain,155
2013-11-23,46,42,39,43,39,36,93,87,74,30.09,30.03,29.89,10,9,2,23,15,28,0.05,7,Rain,132
2013-11-24,51,44,37,37,35,30,87,77,54,30.16,30.11,30.05,10,10,10,15,9,,0.00,6,,104
2013-11-25,53,42,32,36,32,28,87,70,44,30.23,30.16,30.10,10,10,10,9,2,,0.00,1,,7
2013-11-26,55,44,33,30,26,21,81,51,33,30.32,30.25,30.19,10,10,10,16,9,21,0.00,1,,115
2013-11-27,53,46,37,25,21,19,59,40,26,30.21,30.13,30.04,10,10,10,16,11,,0.00,5,,116
2013-11-28,64,49,34,32,27,22,64,44,27,30.12,30.09,30.01,10,10,10,14,7,,0.00,0,,101
2013-11-29,69,56,43,39,33,29,66,46,23,30.19,30.13,30.06,10,10,10,7,3,,0.00,2,,274
2013-11-30,68,57,46,37,33,28,63,44,26,30.18,30.13,30.06,10,10,10,7,3,,0.00,1,,146